»·PEaware :: DCM206 KDEN-KPHX

DCM206 :: KDEN-KPHX

FLIGHT INFORMATION

Flight Status: Arrived
Operator:
DotCom
More flights by this operator :: More flights under this callsign
Pilot: Nick L. (7253)
Aircraft: AIRBUS A300B4-600
(A306)
More flights by this aircraft type
Origin: KDEN Denver Intl
United States
Destination: KPHX Phoenix Sky Harbor Intl
United States
More flights between these airports :: More routes between these airports
Route: SMMUR2 DAAYE GUP EAGUL6
File this flight plan on PilotEdge
Remarks: RMK / SIMBRIEF
Altitude:
(Current/Filed)
36,000ft
Speed:
(Current/Filed)
456kts
Departed: 26-Jan-21 04:37 PM
Arrived: 26-Jan-21 06:09 PM
Distance/Time
Traveled:
523nm/1:32
Distance/Time
To Go:
Arrived

Flight Plot

Page will automatically refresh every two minutes.

Flight plan parsing failed; only flown route is shown


Map Options




Map Legend


Flown Route
Filed Route
Departure Airport
Arrival Airport
Navaid (VOR, NDB)
Fix

Horizontal Profiles

Position Reports

Time Latitude Longitude Heading Altitude Ground
Speed
26-Jan-21 16:01 39.859390 -104.678367 179 5332ft 0kts
26-Jan-21 16:02 39.859390 -104.678367 179 5332ft 0kts
26-Jan-21 16:03 39.859390 -104.678367 179 5332ft 0kts
26-Jan-21 16:04 39.859390 -104.678367 179 5332ft 0kts
26-Jan-21 16:05 39.859390 -104.678367 179 5332ft 0kts
26-Jan-21 16:06 39.859390 -104.678367 179 5332ft 0kts
26-Jan-21 16:07 39.859390 -104.678367 179 5332ft 0kts
26-Jan-21 16:08 39.859390 -104.678367 179 5332ft 0kts
26-Jan-21 16:09 39.859390 -104.678367 179 5332ft 0kts
26-Jan-21 16:10 39.859390 -104.678367 179 5332ft 0kts
26-Jan-21 16:11 39.859390 -104.678367 179 5332ft 0kts
26-Jan-21 16:12 39.859390 -104.678367 179 5332ft 0kts
26-Jan-21 16:13 39.859390 -104.678367 179 5332ft 0kts
26-Jan-21 16:14 39.859390 -104.678367 180 5332ft 0kts
26-Jan-21 16:15 39.859390 -104.678367 179 5332ft 0kts
26-Jan-21 16:16 39.859478 -104.677927 56 5332ft 2kts
26-Jan-21 16:17 39.860037 -104.676287 89 5332ft 12kts
26-Jan-21 16:18 39.860039 -104.671741 89 5332ft 12kts
26-Jan-21 16:19 39.860614 -104.667543 87 5332ft 8kts
26-Jan-21 16:20 39.860546 -104.665887 109 5332ft 0kts
26-Jan-21 16:21 39.860512 -104.665788 115 5332ft 1kts
26-Jan-21 16:22 39.860487 -104.665728 118 5332ft 0kts
26-Jan-21 16:24 39.860289 -104.665220 111 5332ft 7kts
26-Jan-21 16:25 39.856832 -104.663288 140 5332ft 11kts
26-Jan-21 16:26 39.858957 -104.662310 0 5332ft 12kts
26-Jan-21 16:27 39.859694 -104.662302 359 5332ft 0kts
26-Jan-21 16:28 39.859736 -104.662302 359 5332ft 0kts
26-Jan-21 16:29 39.859811 -104.662302 359 5332ft 3kts
26-Jan-21 16:30 39.860047 -104.662301 0 5332ft 0kts
26-Jan-21 16:31 39.860190 -104.662301 359 5332ft 2kts
26-Jan-21 16:32 39.860677 -104.662288 7 5332ft 0kts
26-Jan-21 16:33 39.860860 -104.662218 28 5332ft 3kts
26-Jan-21 16:34 39.861031 -104.661696 90 5332ft 0kts
26-Jan-21 16:35 39.861039 -104.660644 88 5332ft 8kts
26-Jan-21 16:35 39.860822 -104.660168 179 5332ft 0kts
26-Jan-21 16:37 39.845454 -104.660356 180 5332ft 155kts
26-Jan-21 16:37 39.800162 -104.661671 177 6812ft 209kts
26-Jan-21 16:38 39.731529 -104.662062 178 8596ft 278kts
26-Jan-21 16:39 39.651574 -104.667730 194 10191ft 297kts
26-Jan-21 16:40 39.564763 -104.721765 209 11637ft 375kts
26-Jan-21 16:41 39.468298 -104.799631 211 14956ft 393kts
26-Jan-21 16:42 39.373996 -104.876269 210 18056ft 406kts
26-Jan-21 16:43 39.277293 -104.954736 211 20666ft 415kts
26-Jan-21 16:44 39.178154 -105.035119 213 22518ft 427kts
26-Jan-21 16:45 39.072267 -105.110323 208 23462ft 440kts
26-Jan-21 16:46 38.961767 -105.181077 208 24130ft 441kts
26-Jan-21 16:47 38.849379 -105.253730 206 24644ft 459kts
26-Jan-21 16:48 38.728092 -105.331440 206 25176ft 462kts
26-Jan-21 16:49 38.605410 -105.409990 206 25709ft 460kts
26-Jan-21 16:50 38.481075 -105.489414 206 26253ft 461kts
26-Jan-21 16:51 38.358338 -105.566192 206 26786ft 463kts
26-Jan-21 16:52 38.239669 -105.639534 206 27299ft 466kts
26-Jan-21 16:53 38.121671 -105.712454 205 27807ft 471kts
26-Jan-21 16:54 38.006299 -105.794177 218 28322ft 476kts
26-Jan-21 16:55 37.908271 -105.914118 224 29434ft 476kts
26-Jan-21 16:56 37.814932 -106.032429 225 31235ft 473kts
26-Jan-21 16:57 37.722333 -106.149908 225 33587ft 469kts
26-Jan-21 16:58 37.630920 -106.265709 225 35901ft 465kts
26-Jan-21 16:59 37.541154 -106.379124 225 35986ft 440kts
26-Jan-21 17:00 37.455610 -106.486825 225 35997ft 431kts
26-Jan-21 17:01 37.370583 -106.593517 225 35999ft 430kts
26-Jan-21 17:02 37.285832 -106.699505 224 35774ft 435kts
26-Jan-21 17:03 37.200818 -106.805450 224 34270ft 429kts
26-Jan-21 17:04 37.115783 -106.911051 224 34003ft 433kts
26-Jan-21 17:05 37.031361 -107.015509 224 33998ft 423kts
26-Jan-21 17:06 36.947757 -107.118594 224 33999ft 422kts
26-Jan-21 17:07 36.863843 -107.221727 224 34000ft 422kts
26-Jan-21 17:08 36.771252 -107.309352 191 34017ft 423kts
26-Jan-21 17:09 36.654897 -107.293170 177 33991ft 422kts
26-Jan-21 17:10 36.560071 -107.367663 233 34017ft 423kts
26-Jan-21 17:11 36.485566 -107.480827 229 34000ft 422kts
26-Jan-21 17:12 36.408426 -107.590478 229 34000ft 422kts
26-Jan-21 17:13 36.330568 -107.700186 228 34000ft 422kts
26-Jan-21 17:14 36.252606 -107.809758 228 34000ft 422kts
26-Jan-21 17:15 36.175029 -107.918551 228 34000ft 422kts
26-Jan-21 17:16 36.097082 -108.027420 228 34000ft 422kts
26-Jan-21 17:17 36.018999 -108.135912 228 34000ft 422kts
26-Jan-21 17:18 35.940583 -108.244311 228 34000ft 422kts
26-Jan-21 17:19 35.862020 -108.352424 228 34000ft 422kts
26-Jan-21 17:20 35.769936 -108.435413 191 34027ft 423kts
26-Jan-21 17:21 35.653882 -108.459817 189 34000ft 422kts
26-Jan-21 17:22 35.561878 -108.538581 237 34016ft 423kts
26-Jan-21 17:23 35.492783 -108.655363 231 34000ft 422kts
26-Jan-21 17:24 35.420316 -108.768953 231 34000ft 422kts
26-Jan-21 17:25 35.347752 -108.882065 231 34000ft 422kts
26-Jan-21 17:26 35.274853 -108.995471 231 34000ft 422kts
26-Jan-21 17:27 35.202019 -109.108509 231 34000ft 422kts
26-Jan-21 17:28 35.128973 -109.221400 231 34000ft 422kts
26-Jan-21 17:29 35.055632 -109.334157 231 34000ft 422kts
26-Jan-21 17:30 34.982365 -109.446241 231 34000ft 422kts
26-Jan-21 17:31 34.908987 -109.557999 231 34000ft 422kts
26-Jan-21 17:32 34.835360 -109.669709 230 34000ft 422kts
26-Jan-21 17:33 34.761727 -109.781036 230 34000ft 422kts
26-Jan-21 17:34 34.694576 -109.897824 244 34006ft 423kts
26-Jan-21 17:35 34.645693 -110.027490 245 33996ft 421kts
26-Jan-21 17:36 34.602341 -110.143298 245 33181ft 423kts
26-Jan-21 17:37 34.551434 -110.279267 245 31910ft 430kts
26-Jan-21 17:38 34.500990 -110.413693 245 28179ft 434kts
26-Jan-21 17:39 34.463442 -110.550401 269 26728ft 407kts
26-Jan-21 17:40 34.463570 -110.690092 270 25207ft 401kts
26-Jan-21 17:41 34.451763 -110.819303 242 23923ft 382kts
26-Jan-21 17:42 34.399784 -110.928094 229 22865ft 363kts
26-Jan-21 17:43 34.308392 -110.969228 190 21429ft 356kts
26-Jan-21 17:44 34.219576 -111.017706 211 19935ft 353kts
26-Jan-21 17:45 34.134862 -111.079383 210 18462ft 347kts
26-Jan-21 17:46 34.064784 -111.157957 227 17770ft 372kts
26-Jan-21 17:47 33.998333 -111.246919 228 16931ft 323kts
26-Jan-21 17:48 33.939427 -111.325643 228 15346ft 313kts
26-Jan-21 17:50 33.882145 -111.401991 228 14859ft 308kts
26-Jan-21 17:51 33.834984 -111.488456 238 14647ft 306kts
26-Jan-21 17:52 33.789911 -111.575500 237 13360ft 303kts
26-Jan-21 17:53 33.746735 -111.656992 237 12140ft 276kts
26-Jan-21 17:54 33.705963 -111.733723 237 11117ft 270kts
26-Jan-21 17:55 33.667298 -111.806688 237 10405ft 245kts
26-Jan-21 17:56 33.631471 -111.874295 237 9861ft 239kts
26-Jan-21 17:57 33.595667 -111.941681 237 9092ft 240kts
26-Jan-21 17:58 33.560038 -112.008645 237 7757ft 235kts
26-Jan-21 17:59 33.526435 -112.074561 254 6706ft 226kts
26-Jan-21 18:00 33.524758 -112.150462 270 5453ft 227kts
26-Jan-21 18:01 33.525226 -112.225454 270 4323ft 223kts
26-Jan-21 18:02 33.523364 -112.298113 243 3772ft 213kts
26-Jan-21 18:03 33.472521 -112.316227 176 2859ft 202kts
26-Jan-21 18:03 33.441566 -112.278395 120 2861ft 198kts
26-Jan-21 18:05 33.428741 -112.204888 89 2874ft 196kts
26-Jan-21 18:06 33.428840 -112.140484 90 2846ft 179kts
26-Jan-21 18:06 33.428864 -112.092951 90 2213ft 155kts
26-Jan-21 18:07 33.428862 -112.042783 90 1415ft 148kts
26-Jan-21 18:08 33.428883 -112.008777 69 1126ft 12kts
26-Jan-21 18:09 33.429865 -112.006984 61 1128ft 0kts
26-Jan-21 18:10 33.430057 -112.006427 49 1128ft 4kts
26-Jan-21 18:11 33.431812 -112.006230 356 1132ft 0kts
26-Jan-21 18:12 33.432678 -112.004778 334 1131ft 16kts
26-Jan-21 18:13 33.432866 -112.007101 269 1132ft 6kts
26-Jan-21 18:14 33.433418 -112.009400 88 1133ft 2kts
26-Jan-21 18:15 33.433418 -112.009387 88 1133ft 0kts
26-Jan-21 18:16 33.433418 -112.009387 88 1133ft 0kts

Navigation Log

Ident Type
Flight plan parsing failed, navigation log unavailable